createdAt,value
2019-01-14T00:04:56.941Z,7.32
2019-01-14T00:10:03.399Z,7.34
2019-01-14T00:15:10.779Z,7.32
2019-01-14T00:20:15.948Z,7.06
2019-01-14T00:25:21.071Z,6.72
2019-01-14T00:30:26.070Z,6.50
2019-01-14T00:35:31.376Z,6.43
2019-01-14T00:40:36.366Z,6.35
2019-01-14T00:45:41.422Z,6.25
2019-01-14T00:50:46.910Z,6.20
2019-01-14T00:55:51.958Z,6.14
2019-01-14T01:00:57.072Z,6.12
2019-01-14T01:06:02.114Z,6.16
2019-01-14T01:11:07.591Z,6.16
2019-01-14T01:16:12.658Z,6.14
2019-01-14T01:21:17.731Z,6.13
2019-01-14T01:26:23.004Z,6.11
2019-01-14T01:31:28.290Z,6.08
2019-01-14T01:36:33.392Z,6.07
2019-01-14T01:41:38.410Z,6.10
2019-01-14T01:46:43.451Z,6.09
2019-01-14T01:51:48.542Z,5.96
2019-01-14T01:56:53.633Z,5.98
2019-01-14T02:01:58.998Z,5.94
2019-01-14T02:07:04.057Z,5.90
2019-01-14T02:12:09.520Z,5.87
2019-01-14T02:17:14.726Z,5.83
2019-01-14T02:22:19.744Z,5.78
2019-01-14T02:27:24.759Z,5.81
2019-01-14T02:32:29.906Z,5.81
2019-01-14T02:37:34.938Z,5.85
2019-01-14T02:42:40.000Z,5.80
2019-01-14T02:47:44.992Z,5.73
2019-01-14T02:52:50.100Z,5.70
2019-01-14T02:57:55.114Z,5.64
2019-01-14T03:03:00.456Z,5.48
2019-01-14T03:08:05.795Z,5.46
2019-01-14T03:13:10.779Z,5.46
2019-01-14T03:18:15.888Z,5.40
2019-01-14T03:23:20.924Z,5.34
2019-01-14T03:28:26.047Z,5.34
2019-01-14T03:33:31.110Z,5.30
2019-01-14T03:38:36.156Z,5.28
2019-01-14T03:43:41.167Z,5.19
2019-01-14T03:48:46.166Z,5.17
2019-01-14T03:53:51.250Z,5.12
2019-01-14T03:58:56.257Z,5.07
2019-01-14T04:04:01.260Z,5.07
2019-01-14T04:09:07.776Z,4.99
2019-01-14T04:14:12.744Z,4.98
2019-01-14T04:19:18.064Z,4.97
2019-01-14T04:24:23.422Z,4.91
2019-01-14T04:29:28.968Z,4.88
2019-01-14T04:34:35.494Z,4.79
2019-01-14T04:39:40.733Z,4.80
2019-01-14T04:44:49.034Z,4.68
2019-01-14T04:49:59.336Z,4.69
2019-01-14T04:55:06.335Z,4.64
2019-01-14T05:00:14.524Z,4.63
2019-01-14T05:05:19.810Z,4.60
2019-01-14T05:10:25.016Z,4.54
2019-01-14T05:15:30.201Z,4.46
2019-01-14T05:20:35.384Z,4.46
2019-01-14T05:25:40.396Z,4.44
2019-01-14T05:30:45.723Z,4.46
2019-01-14T05:35:50.840Z,4.42
2019-01-14T05:40:55.916Z,4.44
2019-01-14T05:46:00.969Z,4.39
2019-01-14T05:51:06.022Z,4.32
2019-01-14T05:56:11.073Z,4.23
2019-01-14T06:01:16.069Z,4.25
2019-01-14T06:06:21.084Z,4.24
2019-01-14T06:11:26.216Z,4.21
2019-01-14T06:16:32.257Z,4.13
2019-01-14T06:21:37.238Z,4.16
2019-01-14T06:26:42.714Z,4.13
2019-01-14T06:31:47.668Z,4.09
2019-01-14T06:36:52.634Z,4.16
2019-01-14T06:41:57.788Z,4.14
2019-01-14T06:47:03.152Z,4.21
2019-01-14T06:52:08.282Z,4.24
2019-01-14T06:57:13.546Z,4.32
2019-01-14T07:02:18.666Z,4.37
2019-01-14T07:07:23.662Z,4.43
2019-01-14T07:12:30.631Z,4.54
2019-01-14T07:17:37.246Z,4.60
2019-01-14T07:22:42.325Z,4.69
2019-01-14T07:28:00.269Z,4.71
2019-01-14T07:33:09.770Z,4.72
2019-01-14T07:38:15.322Z,4.76
2019-01-14T07:43:20.834Z,4.70
2019-01-14T07:48:30.391Z,4.77
2019-01-14T07:53:40.472Z,4.80
2019-01-14T07:58:48.910Z,4.65
2019-01-14T08:03:54.642Z,4.58
2019-01-14T08:09:03.130Z,4.55
2019-01-14T08:14:10.794Z,4.52
2019-01-14T08:19:16.247Z,4.52
2019-01-14T08:24:26.268Z,4.52
2019-01-14T08:29:33.413Z,4.57
2019-01-14T08:34:38.935Z,4.58
2019-01-14T08:39:52.186Z,4.57
2019-01-14T08:45:01.133Z,4.52
2019-01-14T08:50:09.112Z,4.56
2019-01-14T08:55:14.435Z,4.43
2019-01-14T09:00:21.645Z,4.42
2019-01-14T09:05:26.800Z,4.40
2019-01-14T09:10:31.859Z,4.46
2019-01-14T09:15:47.422Z,4.51
2019-01-14T09:20:45.214Z,4.53
2019-01-14T09:25:53.910Z,4.41
2019-01-14T09:30:57.067Z,4.37
2019-01-14T09:36:02.204Z,4.41
2019-01-14T09:41:07.470Z,4.43
2019-01-14T09:46:12.583Z,4.37
2019-01-14T09:51:17.714Z,4.34
2019-01-14T09:56:22.823Z,4.30
2019-01-14T10:01:28.039Z,4.25
2019-01-14T10:06:34.598Z,4.30
2019-01-14T10:11:39.810Z,4.11
2019-01-14T10:16:45.456Z,3.88
2019-01-14T10:21:50.817Z,3.82
2019-01-14T10:26:55.945Z,3.75
2019-01-14T10:32:01.531Z,3.96
2019-01-14T10:37:06.905Z,4.21
2019-01-14T10:42:12.074Z,4.22
2019-01-14T10:47:21.186Z,4.52
2019-01-14T10:52:26.335Z,4.79
2019-01-14T10:57:31.452Z,4.90
2019-01-14T11:02:36.742Z,4.96
2019-01-14T11:07:42.304Z,4.82
2019-01-14T11:12:47.410Z,4.70
2019-01-14T11:17:52.620Z,4.71
2019-01-14T11:22:58.130Z,4.56
2019-01-14T11:28:03.230Z,4.52
2019-01-14T11:33:08.892Z,4.57
2019-01-14T11:38:39.265Z,4.66
2019-01-14T11:43:44.543Z,4.63
2019-01-14T11:48:49.619Z,4.50
2019-01-14T11:53:54.672Z,4.55
2019-01-14T11:58:59.890Z,4.50
2019-01-14T12:04:05.062Z,4.43
2019-01-14T12:09:12.612Z,4.47
2019-01-14T12:14:17.836Z,5.10
2019-01-14T12:19:22.882Z,4.85
2019-01-14T12:24:28.022Z,4.74
2019-01-14T12:29:33.167Z,4.70
2019-01-14T12:34:38.242Z,4.57
2019-01-14T12:39:43.506Z,4.53
2019-01-14T12:44:48.823Z,3.92
2019-01-14T12:49:58.853Z,3.07
2019-01-14T12:55:18.392Z,2.70
2019-01-14T13:00:25.664Z,2.55
2019-01-14T13:05:31.070Z,2.55
2019-01-14T13:10:36.548Z,2.69
2019-01-14T13:15:46.735Z,2.82
2019-01-14T13:20:52.168Z,3.59
2019-01-14T13:25:57.852Z,4.71
2019-01-14T13:31:02.963Z,4.85
2019-01-14T13:36:10.118Z,5.08
2019-01-14T13:41:21.393Z,4.93
2019-01-14T13:46:31.975Z,3.93
2019-01-14T13:51:37.703Z,3.00
2019-01-14T13:56:43.022Z,2.90
2019-01-14T14:01:48.116Z,2.81
2019-01-14T14:06:56.494Z,2.63
2019-01-14T14:12:01.799Z,2.45
2019-01-14T14:17:09.056Z,2.31
2019-01-14T14:22:14.231Z,2.13
2019-01-14T14:27:21.919Z,1.82
2019-01-14T14:32:29.405Z,1.69
2019-01-14T14:37:35.046Z,1.59
2019-01-14T14:42:40.181Z,1.70
2019-01-14T14:47:50.310Z,1.73
2019-01-14T14:52:57.996Z,1.82
2019-01-14T14:58:03.485Z,1.88
2019-01-14T15:03:08.752Z,1.97
2019-01-14T15:08:13.866Z,1.91
2019-01-14T15:13:19.115Z,2.00
2019-01-14T15:18:24.408Z,2.04
2019-01-14T15:23:29.586Z,2.08
2019-01-14T15:28:34.791Z,2.09
2019-01-14T15:33:44.228Z,2.09
2019-01-14T15:38:52.646Z,2.14
2019-01-14T15:44:07.975Z,2.19
2019-01-14T15:49:18.543Z,2.12
2019-01-14T15:54:28.513Z,2.14
2019-01-14T15:59:38.401Z,2.07
2019-01-14T16:04:46.444Z,2.13
2019-01-14T16:09:57.348Z,2.11
2019-01-14T16:15:02.654Z,2.12
2019-01-14T16:20:17.421Z,2.00
2019-01-14T16:25:22.654Z,2.03
2019-01-14T16:30:32.600Z,2.06
2019-01-14T16:35:41.587Z,2.04
2019-01-14T16:40:48.581Z,1.94
2019-01-14T16:46:00.679Z,1.95
2019-01-14T16:51:07.120Z,1.91
2019-01-14T16:56:19.291Z,1.88
2019-01-14T17:01:33.207Z,1.84
2019-01-14T17:06:47.967Z,1.78
2019-01-14T17:11:55.208Z,1.79
2019-01-14T17:17:01.749Z,1.79
2019-01-14T17:22:07.814Z,1.75
2019-01-14T17:27:13.233Z,1.77
2019-01-14T17:32:20.927Z,1.78
2019-01-14T17:37:27.823Z,1.75
2019-01-14T17:42:33.230Z,1.76
2019-01-14T17:47:41.245Z,1.76
2019-01-14T17:52:47.506Z,1.72
2019-01-14T17:57:53.239Z,1.72
2019-01-14T18:02:58.611Z,1.71
2019-01-14T18:08:05.443Z,1.68
2019-01-14T18:13:10.721Z,1.73
2019-01-14T18:18:18.751Z,1.72
2019-01-14T18:23:30.698Z,1.69
2019-01-14T18:28:36.028Z,1.77
2019-01-14T18:33:41.565Z,1.77
2019-01-14T18:38:47.090Z,1.78
2019-01-14T18:43:52.334Z,1.82
2019-01-14T18:49:01.140Z,1.78
2019-01-14T18:54:07.779Z,1.75
2019-01-14T18:59:14.128Z,1.68
2019-01-14T19:04:21.791Z,1.68
2019-01-14T19:09:33.012Z,1.69
2019-01-14T19:14:39.698Z,1.63
2019-01-14T19:19:46.935Z,1.68
2019-01-14T19:24:54.358Z,1.71
2019-01-14T19:29:59.323Z,1.74
2019-01-14T19:35:05.650Z,1.72
2019-01-14T19:40:14.535Z,1.76
2019-01-14T19:45:21.926Z,1.73
2019-01-14T19:50:35.119Z,1.73
2019-01-14T19:55:42.955Z,1.74
2019-01-14T20:00:48.545Z,1.71
2019-01-14T20:05:54.305Z,1.68
2019-01-14T20:11:14.444Z,1.71
2019-01-14T20:16:19.005Z,1.74
2019-01-14T20:21:24.355Z,1.68
2019-01-14T20:26:29.766Z,1.68
2019-01-14T20:31:44.656Z,1.72
2019-01-14T20:36:55.711Z,1.69
2019-01-14T20:42:01.723Z,1.72
2019-01-14T20:47:09.023Z,1.72
2019-01-14T20:52:14.538Z,1.71
2019-01-14T20:57:19.785Z,1.66
2019-01-14T21:02:24.897Z,1.72
2019-01-14T21:07:30.880Z,1.67
2019-01-14T21:12:39.259Z,1.64
2019-01-14T21:17:46.047Z,1.65
2019-01-14T21:22:56.246Z,1.61
2019-01-14T21:28:08.902Z,1.61
2019-01-14T21:33:23.845Z,1.67
2019-01-14T21:38:32.206Z,1.66
2019-01-14T21:43:43.926Z,1.76
2019-01-14T21:48:51.341Z,1.83
2019-01-14T21:53:56.850Z,1.88
2019-01-14T21:59:08.794Z,1.95
2019-01-14T22:04:18.319Z,2.01
2019-01-14T22:09:25.578Z,2.04
2019-01-14T22:14:31.021Z,2.01
2019-01-14T22:19:36.197Z,2.07
2019-01-14T22:24:42.893Z,2.07
2019-01-14T22:29:49.091Z,2.14
2019-01-14T22:34:55.169Z,2.16
2019-01-14T22:40:00.737Z,2.17
2019-01-14T22:45:06.673Z,2.18
2019-01-14T22:50:13.761Z,2.17
2019-01-14T22:55:19.201Z,2.23
2019-01-14T23:00:46.968Z,2.20
2019-01-14T23:05:53.895Z,2.23
2019-01-14T23:10:59.259Z,2.14
2019-01-14T23:16:05.217Z,2.11
2019-01-14T23:21:10.406Z,2.23
2019-01-14T23:26:15.544Z,2.22
2019-01-14T23:31:20.629Z,2.32
2019-01-14T23:36:26.001Z,2.33
2019-01-14T23:41:30.974Z,2.28
2019-01-14T23:46:36.023Z,2.30
2019-01-14T23:51:41.003Z,2.32
2019-01-14T23:56:46.029Z,2.36
